createdAt,value
2023-05-01T00:00:25.429Z,95233.41
2023-05-01T00:01:28.805Z,95239.75
2023-05-01T00:02:32.252Z,95234.72
2023-05-01T00:03:34.140Z,95225.44
2023-05-01T00:04:36.162Z,95226.19
2023-05-01T00:05:37.901Z,95228.31
2023-05-01T00:06:41.797Z,95221.69
2023-05-01T00:07:43.573Z,95230.03
2023-05-01T00:08:47.704Z,95221.13
2023-05-01T00:09:49.384Z,95220.06
2023-05-01T00:10:50.908Z,95220.97
2023-05-01T00:11:52.544Z,95224.28
2023-05-01T00:12:54.238Z,95222.69
2023-05-01T00:13:55.784Z,95218.25
2023-05-01T00:15:00.606Z,95220.00
2023-05-01T00:16:02.626Z,95219.50
2023-05-01T00:17:04.330Z,95221.31
2023-05-01T00:18:06.018Z,95221.09
2023-05-01T00:19:12.649Z,95223.06
2023-05-01T00:20:14.338Z,95218.44
2023-05-01T00:21:16.892Z,95207.19
2023-05-01T00:22:18.460Z,95218.94
2023-05-01T00:23:26.687Z,95215.78
2023-05-01T00:24:28.273Z,95213.13
2023-05-01T00:25:31.254Z,95212.84
2023-05-01T00:26:32.968Z,95218.13
2023-05-01T00:27:37.787Z,95212.06
2023-05-01T00:28:39.432Z,95209.13
2023-05-01T00:29:42.137Z,95214.03
2023-05-01T00:30:43.667Z,95219.06
2023-05-01T00:31:45.736Z,95207.81
2023-05-01T00:32:47.563Z,95210.72
2023-05-01T00:33:49.091Z,95212.97
2023-05-01T00:34:50.786Z,95209.38
2023-05-01T00:35:52.870Z,95207.63
2023-05-01T00:36:57.073Z,95210.91
2023-05-01T00:37:58.688Z,95214.09
2023-05-01T00:39:00.413Z,95211.81
2023-05-01T00:40:07.113Z,95209.03
2023-05-01T00:41:11.248Z,95204.28
2023-05-01T00:42:12.861Z,95206.91
2023-05-01T00:43:14.620Z,95209.28
2023-05-01T00:44:16.799Z,95207.88
2023-05-01T00:45:18.668Z,95214.03
2023-05-01T00:46:20.425Z,95202.84
2023-05-01T00:47:22.334Z,95202.41
2023-05-01T00:48:24.217Z,95203.22
2023-05-01T00:49:27.089Z,95206.16
2023-05-01T00:50:29.832Z,95195.56
2023-05-01T00:51:31.843Z,95200.59
2023-05-01T00:52:33.821Z,95197.72
2023-05-01T00:53:37.719Z,95189.72
2023-05-01T00:54:40.566Z,95198.72
2023-05-01T00:55:45.697Z,95199.53
2023-05-01T00:56:48.154Z,95195.00
2023-05-01T00:57:52.817Z,95193.41
2023-05-01T00:58:54.485Z,95192.91
2023-05-01T00:59:56.389Z,95189.38
2023-05-01T01:01:01.731Z,95197.63
2023-05-01T01:02:03.543Z,95185.72
2023-05-01T01:03:05.363Z,95181.53
2023-05-01T01:04:07.136Z,95187.50
2023-05-01T01:05:09.296Z,95183.25
2023-05-01T01:06:17.281Z,95183.47
2023-05-01T01:07:27.403Z,95179.78
2023-05-01T01:08:37.439Z,95181.84
2023-05-01T01:09:54.074Z,95182.16
2023-05-01T01:11:05.223Z,95184.19
2023-05-01T01:12:32.694Z,95186.84
2023-05-01T01:14:08.590Z,95185.56
2023-05-01T01:15:18.890Z,95182.38
2023-05-01T01:16:32.923Z,95184.75
2023-05-01T01:17:50.752Z,95179.09
2023-05-01T01:19:39.136Z,95176.97
2023-05-01T01:21:11.637Z,95183.84
2023-05-01T01:22:24.994Z,95177.75
2023-05-01T01:23:42.141Z,95177.22
2023-05-01T01:25:07.238Z,95178.81
2023-05-01T01:26:24.045Z,95180.97
2023-05-01T01:27:58.371Z,95180.97
2023-05-01T01:29:26.933Z,95173.75
2023-05-01T01:30:47.069Z,95172.94
2023-05-01T01:32:31.626Z,95174.22
2023-05-01T01:33:54.639Z,95174.75
2023-05-01T01:35:03.184Z,95175.88
2023-05-01T01:36:13.224Z,95177.72
2023-05-01T01:37:22.716Z,95172.66
2023-05-01T01:38:37.722Z,95178.78
2023-05-01T01:40:04.114Z,95176.09
2023-05-01T01:41:24.026Z,95184.03
2023-05-01T01:42:34.889Z,95174.75
2023-05-01T01:43:46.497Z,95177.41
2023-05-01T01:44:52.851Z,95184.06
2023-05-01T01:46:01.240Z,95175.03
2023-05-01T01:47:09.144Z,95180.88
2023-05-01T01:48:17.649Z,95178.47
2023-05-01T01:49:25.857Z,95179.28
2023-05-01T01:50:28.937Z,95180.06
2023-05-01T01:51:31.261Z,95177.97
2023-05-01T01:52:35.291Z,95176.69
2023-05-01T01:53:39.308Z,95184.06
2023-05-01T01:54:58.534Z,95184.06
2023-05-01T01:56:04.321Z,95181.91
2023-05-01T01:57:12.999Z,95175.59
2023-05-01T01:58:18.249Z,95180.88
2023-05-01T01:59:24.311Z,95176.38
2023-05-01T02:00:29.821Z,95174.75
2023-05-01T02:01:33.726Z,95178.78
2023-05-01T02:02:38.817Z,95171.06
2023-05-01T02:03:41.877Z,95176.69
2023-05-01T02:04:44.731Z,95178.50
2023-05-01T02:05:48.144Z,95176.69
2023-05-01T02:06:50.072Z,95180.09
2023-05-01T02:07:53.273Z,95172.16
2023-05-01T02:08:56.880Z,95170.56
2023-05-01T02:10:02.404Z,95171.63
2023-05-01T02:11:05.425Z,95166.09
2023-05-01T02:12:09.843Z,95168.97
2023-05-01T02:13:14.740Z,95173.47
2023-05-01T02:14:18.687Z,95167.66
2023-05-01T02:15:21.425Z,95172.66
2023-05-01T02:16:25.652Z,95173.16
2023-05-01T02:17:29.084Z,95172.88
2023-05-01T02:18:34.726Z,95170.78
2023-05-01T02:19:41.714Z,95169.75
2023-05-01T02:20:44.519Z,95163.91
2023-05-01T02:21:47.653Z,95165.50
2023-05-01T02:22:53.228Z,95169.19
2023-05-01T02:23:55.341Z,95165.75
2023-05-01T02:25:01.059Z,95173.38
2023-05-01T02:26:04.407Z,95164.38
2023-05-01T02:27:26.499Z,95164.59
2023-05-01T02:28:29.869Z,95167.78
2023-05-01T02:29:36.871Z,95164.91
2023-05-01T02:30:41.200Z,95167.56
2023-05-01T02:31:43.033Z,95157.47
2023-05-01T02:32:47.161Z,95157.97
2023-05-01T02:33:48.883Z,95162.72
2023-05-01T02:34:50.565Z,95162.00
2023-05-01T02:35:52.436Z,95151.00
2023-05-01T02:36:56.400Z,95162.63
2023-05-01T02:37:58.216Z,95163.69
2023-05-01T02:39:00.226Z,95160.84
2023-05-01T02:40:05.627Z,95164.13
2023-05-01T02:41:09.845Z,95160.94
2023-05-01T02:42:13.170Z,95158.78
2023-05-01T02:43:17.829Z,95157.53
2023-05-01T02:44:20.658Z,95160.41
2023-05-01T02:45:25.232Z,95160.94
2023-05-01T02:46:28.157Z,95160.66
2023-05-01T02:47:33.848Z,95160.16
2023-05-01T02:48:37.636Z,95159.66
2023-05-01T02:49:41.011Z,95164.94
2023-05-01T02:50:46.545Z,95162.03
2023-05-01T02:51:48.831Z,95169.97
2023-05-01T02:52:53.433Z,95169.97
2023-05-01T02:54:14.190Z,95171.03
2023-05-01T02:55:17.349Z,95167.59
2023-05-01T02:56:19.265Z,95168.38
2023-05-01T02:57:20.949Z,95166.78
2023-05-01T02:58:22.634Z,95169.44
2023-05-01T02:59:26.343Z,95169.28
2023-05-01T03:00:30.478Z,95167.53
2023-05-01T03:01:32.861Z,95170.72
2023-05-01T03:02:34.825Z,95171.28
2023-05-01T03:03:38.581Z,95171.91
2023-05-01T03:04:40.807Z,95168.31
2023-05-01T03:05:42.676Z,95160.94
2023-05-01T03:06:44.701Z,95162.81
2023-05-01T03:07:49.124Z,95158.31
2023-05-01T03:08:50.732Z,95161.50
2023-05-01T03:09:52.638Z,95151.56
2023-05-01T03:10:54.226Z,95162.00
2023-05-01T03:11:58.270Z,95157.25
2023-05-01T03:13:00.546Z,95155.91
2023-05-01T03:14:02.249Z,95155.38
2023-05-01T03:15:04.161Z,95160.00
2023-05-01T03:16:08.852Z,95155.59
2023-05-01T03:17:13.331Z,95154.00
2023-05-01T03:18:15.021Z,95151.41
2023-05-01T03:19:16.500Z,95158.16
2023-05-01T03:20:18.209Z,95157.69
2023-05-01T03:21:19.806Z,95147.13
2023-05-01T03:22:21.778Z,95155.06
2023-05-01T03:23:26.102Z,95152.41
2023-05-01T03:24:28.217Z,95152.97
2023-05-01T03:25:30.018Z,95151.13
2023-05-01T03:26:32.967Z,95151.13
2023-05-01T03:27:36.766Z,95140.25
2023-05-01T03:28:40.994Z,95147.69
2023-05-01T03:29:43.009Z,95144.88
2023-05-01T03:30:45.027Z,95143.34
2023-05-01T03:31:46.982Z,95146.56
2023-05-01T03:32:48.925Z,95140.63
2023-05-01T03:33:56.669Z,95140.75
2023-05-01T03:34:58.394Z,95137.31
2023-05-01T03:36:05.465Z,95130.47
2023-05-01T03:37:08.568Z,95138.38
2023-05-01T03:38:10.405Z,95130.56
2023-05-01T03:39:35.093Z,95130.66
2023-05-01T03:40:51.698Z,95136.22
2023-05-01T03:42:16.109Z,95134.31
2023-05-01T03:43:18.953Z,95141.19
2023-05-01T03:44:20.528Z,95137.34
2023-05-01T03:45:22.192Z,95138.66
2023-05-01T03:46:24.128Z,95143.72
2023-05-01T03:47:29.004Z,95135.78
2023-05-01T03:48:31.074Z,95132.34
2023-05-01T03:49:32.591Z,95137.22
2023-05-01T03:50:34.193Z,95139.44
2023-05-01T03:51:35.892Z,95135.47
2023-05-01T03:52:40.160Z,95136.28
2023-05-01T03:53:41.916Z,95137.63
2023-05-01T03:54:44.609Z,95136.56
2023-05-01T03:55:54.617Z,95140.53
2023-05-01T03:56:56.419Z,95137.88
2023-05-01T03:57:58.708Z,95130.50
2023-05-01T03:59:00.364Z,95133.88
2023-05-01T04:00:02.030Z,95138.50
2023-05-01T04:01:06.231Z,95138.38
2023-05-01T04:02:10.528Z,95139.91
2023-05-01T04:03:15.323Z,95143.56
2023-05-01T04:04:18.592Z,95146.97
2023-05-01T04:05:25.694Z,95142.50
2023-05-01T04:06:32.982Z,95141.94
2023-05-01T04:07:34.788Z,95143.00
2023-05-01T04:08:36.292Z,95152.03
2023-05-01T04:09:37.989Z,95142.44
2023-05-01T04:10:39.499Z,95151.50
2023-05-01T04:11:41.181Z,95145.56
2023-05-01T04:12:42.683Z,95144.06
2023-05-01T04:13:44.386Z,95152.09
2023-05-01T04:14:47.982Z,95151.66
2023-05-01T04:15:50.015Z,95147.97
2023-05-01T04:16:52.080Z,95151.97
2023-05-01T04:17:55.767Z,95151.47
2023-05-01T04:18:58.105Z,95148.56
2023-05-01T04:20:01.468Z,95147.28
2023-05-01T04:21:03.699Z,95142.31
2023-05-01T04:22:05.676Z,95139.44
2023-05-01T04:23:12.690Z,95152.09
2023-05-01T04:24:14.501Z,95150.22
2023-05-01T04:25:16.185Z,95153.41
2023-05-01T04:26:19.474Z,95151.59
2023-05-01T04:27:21.670Z,95156.88
2023-05-01T04:28:23.457Z,95160.56
2023-05-01T04:29:25.282Z,95154.97
2023-05-01T04:31:31.306Z,95148.75
2023-05-01T04:32:35.543Z,95155.38
2023-05-01T04:33:40.173Z,95162.81
2023-05-01T04:34:44.851Z,95156.25
2023-05-01T04:35:51.361Z,95154.19
2023-05-01T04:36:53.248Z,95158.91
2023-05-01T04:37:57.129Z,95157.31
2023-05-01T04:38:59.263Z,95159.94
2023-05-01T04:40:05.294Z,95159.94
2023-05-01T04:41:07.024Z,95157.03
2023-05-01T04:42:09.008Z,95160.78
2023-05-01T04:43:13.240Z,95163.69
2023-05-01T04:44:17.769Z,95160.56
2023-05-01T04:45:21.953Z,95159.25
2023-05-01T04:46:26.681Z,95164.31
2023-05-01T04:47:28.923Z,95163.25
2023-05-01T04:48:30.718Z,95165.66
2023-05-01T04:49:32.812Z,95161.16
2023-05-01T04:50:37.712Z,95165.41
2023-05-01T04:51:39.528Z,95166.75
2023-05-01T04:52:44.171Z,95168.34
2023-05-01T04:53:48.277Z,95166.50
2023-05-01T04:54:57.981Z,95163.06
2023-05-01T04:56:03.901Z,95162.28
2023-05-01T04:57:06.579Z,95154.91
2023-05-01T04:58:08.169Z,95159.03
2023-05-01T04:59:13.672Z,95155.69
2023-05-01T05:00:15.710Z,95158.38
2023-05-01T05:01:26.046Z,95160.78
2023-05-01T05:02:29.957Z,95153.09
2023-05-01T05:03:32.034Z,95166.63
2023-05-01T05:04:34.352Z,95166.88
2023-05-01T05:05:36.026Z,95167.19
2023-05-01T05:06:39.704Z,95161.88
2023-05-01T05:07:46.498Z,95160.28
2023-05-01T05:09:20.467Z,95165.03
2023-05-01T05:10:22.268Z,95162.69
2023-05-01T05:11:35.616Z,95166.69
2023-05-01T05:12:40.064Z,95164.59
2023-05-01T05:13:41.684Z,95162.19
2023-05-01T05:14:47.953Z,95162.44
2023-05-01T05:15:51.819Z,95169.38
2023-05-01T05:16:56.363Z,95177.63
2023-05-01T05:17:58.228Z,95174.97
2023-05-01T05:19:00.014Z,95171.56
2023-05-01T05:20:05.227Z,95172.13
2023-05-01T05:21:10.463Z,95171.63
2023-05-01T05:22:17.518Z,95177.97
2023-05-01T05:23:41.685Z,95176.69
2023-05-01T05:24:43.261Z,95184.34
2023-05-01T05:25:44.978Z,95180.66
2023-05-01T05:26:49.701Z,95178.81
2023-05-01T05:27:51.307Z,95178.16
2023-05-01T05:28:53.053Z,95183.28
2023-05-01T05:29:57.688Z,95183.88
2023-05-01T05:30:59.839Z,95174.63
2023-05-01T05:32:01.968Z,95184.34
2023-05-01T05:33:04.645Z,95183.59
2023-05-01T05:34:06.257Z,95180.38
2023-05-01T05:35:08.553Z,95171.94
2023-05-01T05:36:11.061Z,95180.19
2023-05-01T05:37:17.821Z,95178.59
2023-05-01T05:38:29.063Z,95173.75
2023-05-01T05:39:33.370Z,95175.38
2023-05-01T05:40:34.994Z,95180.09
2023-05-01T05:41:36.574Z,95181.03
2023-05-01T05:42:38.302Z,95181.66
2023-05-01T05:43:41.277Z,95181.66
2023-05-01T05:44:45.402Z,95186.94
2023-05-01T05:45:47.806Z,95191.34
2023-05-01T05:46:51.999Z,95187.44
2023-05-01T05:48:02.972Z,95188.53
2023-05-01T05:49:07.522Z,95183.25
2023-05-01T05:50:10.006Z,95183.25
2023-05-01T05:51:14.215Z,95177.72
2023-05-01T05:52:16.225Z,95181.66
2023-05-01T05:53:18.641Z,95177.19
2023-05-01T05:54:20.359Z,95183.25
2023-05-01T05:55:23.419Z,95180.06
2023-05-01T05:56:38.127Z,95186.38
2023-05-01T05:57:40.746Z,95173.47
2023-05-01T05:58:44.751Z,95177.41
2023-05-01T05:59:46.472Z,95182.69
2023-05-01T06:00:50.479Z,95181.16
2023-05-01T06:01:53.065Z,95181.97
2023-05-01T06:02:54.799Z,95182.75
2023-05-01T06:03:57.602Z,95185.47
2023-05-01T06:05:03.482Z,95185.47
2023-05-01T06:06:08.327Z,95185.22
2023-05-01T06:07:09.961Z,95180.88
2023-05-01T06:08:12.003Z,95185.22
2023-05-01T06:09:13.674Z,95182.06
2023-05-01T06:10:15.624Z,95177.59
2023-05-01T06:11:21.540Z,95176.78
2023-05-01T06:12:24.079Z,95182.06
2023-05-01T06:13:26.721Z,95176.50
2023-05-01T06:14:28.432Z,95180.22
2023-05-01T06:15:30.091Z,95186.56
2023-05-01T06:16:34.363Z,95185.53
2023-05-01T06:17:37.477Z,95181.56
2023-05-01T06:18:39.244Z,95181.56
2023-05-01T06:19:41.429Z,95184.28
2023-05-01T06:20:45.357Z,95186.25
2023-05-01T06:21:47.014Z,95183.66
2023-05-01T06:22:50.995Z,95184.47
2023-05-01T06:23:57.020Z,95184.97
2023-05-01T06:25:03.155Z,95180.72
2023-05-01T06:26:06.346Z,95176.78
2023-05-01T06:27:08.141Z,95186.84
2023-05-01T06:28:09.659Z,95184.59
2023-05-01T06:29:11.868Z,95185.56
2023-05-01T06:30:16.363Z,95176.31
2023-05-01T06:31:17.970Z,95176.09
2023-05-01T06:32:25.368Z,95182.47
2023-05-01T06:33:27.494Z,95177.97
2023-05-01T06:34:43.388Z,95178.22
2023-05-01T06:35:47.037Z,95179.97
2023-05-01T06:36:50.910Z,95180.38
2023-05-01T06:37:52.555Z,95175.91
2023-05-01T06:38:54.308Z,95184.53
2023-05-01T06:39:57.201Z,95180.66
2023-05-01T06:40:59.216Z,95179.38
2023-05-01T06:42:04.617Z,95178.91
2023-05-01T06:43:15.561Z,95181.31
2023-05-01T06:44:20.612Z,95183.97
2023-05-01T06:45:22.262Z,95180.75
2023-05-01T06:46:27.044Z,95183.16
2023-05-01T06:47:30.770Z,95182.88
2023-05-01T06:48:36.950Z,95183.09
2023-05-01T06:49:38.729Z,95181.03
2023-05-01T06:50:41.782Z,95185.31
2023-05-01T06:51:43.228Z,95183.06
2023-05-01T06:52:47.410Z,95187.47
2023-05-01T06:53:49.183Z,95181.94
2023-05-01T06:54:51.277Z,95181.66
2023-05-01T06:55:52.848Z,95175.88
2023-05-01T06:56:54.611Z,95185.34
2023-05-01T06:57:56.150Z,95189.94
2023-05-01T06:58:57.955Z,95184.50
2023-05-01T06:59:59.549Z,95189.69
2023-05-01T07:01:01.425Z,95190.66
2023-05-01T07:02:03.001Z,95194.00
2023-05-01T07:03:05.161Z,95193.59
2023-05-01T07:04:09.291Z,95191.25
2023-05-01T07:05:10.910Z,95185.63
2023-05-01T07:06:12.542Z,95191.03
2023-05-01T07:07:14.264Z,95183.03
2023-05-01T07:08:16.038Z,95190.84
2023-05-01T07:09:21.325Z,95191.53
2023-05-01T07:10:25.717Z,95186.88
2023-05-01T07:11:27.524Z,95189.56
2023-05-01T07:12:29.632Z,95181.75
2023-05-01T07:13:31.230Z,95190.06
2023-05-01T07:14:35.811Z,95187.63
2023-05-01T07:15:37.899Z,95191.69
2023-05-01T07:16:39.790Z,95199.97
2023-05-01T07:17:43.802Z,95194.72
2023-05-01T07:18:45.387Z,95196.56
2023-05-01T07:19:47.045Z,95196.34
2023-05-01T07:20:50.067Z,95199.72
2023-05-01T07:21:51.766Z,95208.31
2023-05-01T07:22:53.302Z,95199.28
2023-05-01T07:23:54.938Z,95198.03
2023-05-01T07:25:01.201Z,95205.75
2023-05-01T07:26:02.781Z,95197.03
2023-05-01T07:27:04.455Z,95201.28
2023-05-01T07:28:08.141Z,95197.09
2023-05-01T07:29:09.761Z,95201.06
2023-05-01T07:30:11.842Z,95192.34
2023-05-01T07:31:13.536Z,95198.78
2023-05-01T07:32:15.257Z,95198.41
2023-05-01T07:33:19.347Z,95199.84
2023-05-01T07:34:21.205Z,95206.75
2023-05-01T07:35:22.828Z,95199.88
2023-05-01T07:36:24.392Z,95197.91
2023-05-01T07:37:27.087Z,95195.09
2023-05-01T07:38:28.688Z,95197.78
2023-05-01T07:39:31.073Z,95197.25
2023-05-01T07:40:34.004Z,95197.81
2023-05-01T07:41:35.827Z,95191.44
2023-05-01T07:42:38.741Z,95191.44
2023-05-01T07:43:40.409Z,95194.09
2023-05-01T07:44:41.960Z,95190.31
2023-05-01T07:45:55.974Z,95188.75
2023-05-01T07:47:03.129Z,95190.91
2023-05-01T07:48:07.434Z,95189.84
2023-05-01T07:49:11.683Z,95186.16
2023-05-01T07:50:13.305Z,95190.41
2023-05-01T07:51:18.456Z,95189.63
2023-05-01T07:52:20.066Z,95187.53
2023-05-01T07:53:24.510Z,95195.78
2023-05-01T07:54:26.090Z,95198.97
2023-05-01T07:55:27.831Z,95195.25
2023-05-01T07:56:29.353Z,95197.09
2023-05-01T07:57:33.520Z,95200.59
2023-05-01T07:58:36.982Z,95195.00
2023-05-01T07:59:38.636Z,95191.84
2023-05-01T08:00:45.273Z,95195.84
2023-05-01T08:01:48.969Z,95196.91
2023-05-01T08:02:51.803Z,95202.22
2023-05-01T08:03:53.659Z,95194.78
2023-05-01T08:04:55.607Z,95195.59
2023-05-01T08:05:57.448Z,95192.94
2023-05-01T08:06:58.996Z,95192.13
2023-05-01T08:08:00.755Z,95188.94
2023-05-01T08:09:02.366Z,95195.31
2023-05-01T08:10:04.356Z,95190.00
2023-05-01T08:11:10.616Z,95190.53
2023-05-01T08:12:14.631Z,95191.59
2023-05-01T08:13:16.485Z,95192.13
2023-05-01T08:14:19.363Z,95196.41
2023-05-01T08:15:21.747Z,95198.78
2023-05-01T08:16:23.389Z,95195.34
2023-05-01T08:17:27.589Z,95195.06
2023-05-01T08:18:30.099Z,95199.06
2023-05-01T08:19:32.181Z,95196.13
2023-05-01T08:20:33.855Z,95201.44
2023-05-01T08:21:35.608Z,95200.66
2023-05-01T08:22:39.477Z,95200.13
2023-05-01T08:23:41.096Z,95200.38
2023-05-01T08:24:42.974Z,95195.34
2023-05-01T08:25:51.587Z,95199.59
2023-05-01T08:26:53.308Z,95205.44
2023-05-01T08:27:54.870Z,95205.69
2023-05-01T08:28:56.481Z,95200.38
2023-05-01T08:30:00.429Z,95211.25
2023-05-01T08:31:03.786Z,95197.47
2023-05-01T08:32:05.580Z,95209.41
2023-05-01T08:33:07.180Z,95202.22
2023-05-01T08:34:08.768Z,95207.56
2023-05-01T08:35:10.379Z,95209.94
2023-05-01T08:36:12.254Z,95209.41
2023-05-01T08:37:13.897Z,95207.03
2023-05-01T08:38:15.781Z,95202.50
2023-05-01T08:39:19.689Z,95212.06
2023-05-01T08:40:23.331Z,95210.47
2023-05-01T08:41:29.452Z,95206.75
2023-05-01T08:42:32.378Z,95205.97
2023-05-01T08:43:34.090Z,95206.50
2023-05-01T08:44:39.357Z,95209.41
2023-05-01T08:45:46.042Z,95213.41
2023-05-01T08:46:55.804Z,95202.78
2023-05-01T08:48:01.776Z,95204.91
2023-05-01T08:49:11.486Z,95205.16
2023-05-01T08:50:17.458Z,95206.75
2023-05-01T08:51:21.283Z,95208.88
2023-05-01T08:52:24.113Z,95209.41
2023-05-01T08:53:27.066Z,95206.47
2023-05-01T08:54:31.294Z,95209.13
2023-05-01T08:55:37.540Z,95207.00
2023-05-01T08:56:39.429Z,95208.06
2023-05-01T08:57:46.584Z,95210.72
2023-05-01T08:58:49.891Z,95206.75
2023-05-01T08:59:56.430Z,95206.47
2023-05-01T09:00:58.301Z,95211.78
2023-05-01T09:02:05.890Z,95210.72
2023-05-01T09:03:11.485Z,95213.66
2023-05-01T09:04:17.318Z,95208.34
2023-05-01T09:05:20.359Z,95214.19
2023-05-01T09:06:22.758Z,95218.16
2023-05-01T09:07:25.551Z,95214.19
2023-05-01T09:08:30.266Z,95222.41
2023-05-01T09:09:34.560Z,95218.69
2023-05-01T09:10:41.283Z,95222.94
2023-05-01T09:11:45.128Z,95220.28
2023-05-01T09:12:56.431Z,95220.28
2023-05-01T09:14:00.449Z,95219.75
2023-05-01T09:15:03.555Z,95218.69
2023-05-01T09:16:08.359Z,95221.88
2023-05-01T09:17:10.289Z,95226.13
2023-05-01T09:18:12.915Z,95221.09
2023-05-01T09:19:14.948Z,95216.84
2023-05-01T09:20:18.627Z,95225.06
2023-05-01T09:21:20.610Z,95225.06
2023-05-01T09:22:24.741Z,95227.72
2023-05-01T09:23:26.437Z,95229.59
2023-05-01T09:24:28.163Z,95231.47
2023-05-01T09:25:32.242Z,95232.53
2023-05-01T09:26:36.881Z,95238.09
2023-05-01T09:27:41.334Z,95243.94
2023-05-01T09:28:52.061Z,95243.69
2023-05-01T09:29:58.435Z,95240.47
2023-05-01T09:31:00.290Z,95243.94
2023-05-01T09:32:16.202Z,95252.16
2023-05-01T09:33:17.861Z,95250.03
2023-05-01T09:34:21.870Z,95250.56
2023-05-01T09:35:23.535Z,95247.38
2023-05-01T09:36:28.020Z,95250.03
2023-05-01T09:37:33.982Z,95247.91
2023-05-01T09:38:35.630Z,95252.97
2023-05-01T09:39:37.978Z,95251.63
2023-05-01T09:40:41.917Z,95260.94
2023-05-01T09:41:55.567Z,95259.59
2023-05-01T09:42:57.212Z,95263.31
2023-05-01T09:43:59.348Z,95261.19
2023-05-01T09:45:03.742Z,95260.13
2023-05-01T09:46:12.784Z,95261.72
2023-05-01T09:47:22.887Z,95254.28
2023-05-01T09:48:24.583Z,95260.63
2023-05-01T09:49:48.193Z,95265.72
2023-05-01T09:50:50.816Z,95260.91
2023-05-01T09:51:52.441Z,95270.47
2023-05-01T09:52:56.773Z,95272.06
2023-05-01T09:54:01.415Z,95269.13
2023-05-01T09:55:16.965Z,95274.47
2023-05-01T09:56:19.698Z,95269.69
2023-05-01T09:57:50.194Z,95271.81
2023-05-01T09:58:53.789Z,95272.63
2023-05-01T10:00:02.849Z,95275.81
2023-05-01T10:01:06.835Z,95272.88
2023-05-01T10:02:28.561Z,95272.38
2023-05-01T10:03:34.953Z,95272.63
2023-05-01T10:04:36.702Z,95267.31
2023-05-01T10:05:44.675Z,95261.19
2023-05-01T10:06:46.433Z,95261.22
2023-05-01T10:08:02.442Z,95261.75
2023-05-01T10:09:05.522Z,95263.34
2023-05-01T10:10:20.281Z,95257.50
2023-05-01T10:11:24.577Z,95258.28
2023-05-01T10:12:30.427Z,95270.78
2023-05-01T10:13:34.300Z,95271.56
2023-05-01T10:15:07.765Z,95273.38
2023-05-01T10:16:29.972Z,95272.59
2023-05-01T10:17:32.859Z,95276.56
2023-05-01T10:18:35.611Z,95274.91
2023-05-01T10:19:37.228Z,95276.78
2023-05-01T10:20:39.006Z,95267.19
2023-05-01T10:21:40.841Z,95275.97
2023-05-01T10:22:42.575Z,95275.97
2023-05-01T10:23:44.181Z,95270.13
2023-05-01T10:24:46.228Z,95286.53
2023-05-01T10:25:52.372Z,95280.94
2023-05-01T10:26:57.205Z,95273.25
2023-05-01T10:27:59.339Z,95277.50
2023-05-01T10:29:04.366Z,95275.88
2023-05-01T10:30:07.275Z,95273.22
2023-05-01T10:31:10.683Z,95278.47
2023-05-01T10:32:12.923Z,95284.59
2023-05-01T10:33:17.716Z,95277.16
2023-05-01T10:34:23.830Z,95280.31
2023-05-01T10:35:34.440Z,95275.56
2023-05-01T10:36:45.001Z,95278.72
2023-05-01T10:37:48.599Z,95275.81
2023-05-01T10:38:50.288Z,95276.34
2023-05-01T10:39:54.308Z,95273.72
2023-05-01T10:40:58.214Z,95273.66
2023-05-01T10:42:14.770Z,95274.25
2023-05-01T10:43:21.007Z,95282.50
2023-05-01T10:44:24.174Z,95270.53
2023-05-01T10:45:30.093Z,95279.56
2023-05-01T10:46:31.936Z,95280.66
2023-05-01T10:47:37.733Z,95278.53
2023-05-01T10:48:39.548Z,95280.13
2023-05-01T10:49:59.813Z,95285.31
2023-05-01T10:51:15.840Z,95279.81
2023-05-01T10:52:17.535Z,95280.84
2023-05-01T10:53:19.319Z,95285.22
2023-05-01T10:54:21.234Z,95283.50
2023-05-01T10:55:35.563Z,95282.69
2023-05-01T10:56:37.123Z,95280.09
2023-05-01T10:57:44.765Z,95286.19
2023-05-01T10:58:51.444Z,95285.44
2023-05-01T10:59:58.994Z,95280.16
2023-05-01T11:01:30.014Z,95290.78
2023-05-01T11:02:31.973Z,95279.16
2023-05-01T11:03:36.618Z,95280.22
2023-05-01T11:04:49.745Z,95277.03
2023-05-01T11:06:00.942Z,95281.88
2023-05-01T11:07:06.043Z,95282.16
2023-05-01T11:08:33.107Z,95282.94
2023-05-01T11:09:46.949Z,95280.28
2023-05-01T11:10:48.493Z,95281.63
2023-05-01T11:11:50.444Z,95277.91
2023-05-01T11:12:57.172Z,95278.72
2023-05-01T11:14:05.442Z,95272.88
2023-05-01T11:15:08.360Z,95279.53
2023-05-01T11:16:38.512Z,95282.47
2023-05-01T11:17:43.691Z,95278.22
2023-05-01T11:18:46.045Z,95283.00
2023-05-01T11:19:50.846Z,95272.88
2023-05-01T11:20:52.556Z,95279.53
2023-05-01T11:21:55.750Z,95277.66
2023-05-01T11:23:00.550Z,95280.84
2023-05-01T11:24:03.784Z,95274.47
2023-05-01T11:25:22.492Z,95273.94
2023-05-01T11:26:24.366Z,95275.53
2023-05-01T11:27:27.404Z,95275.53
2023-05-01T11:28:31.032Z,95269.69
2023-05-01T11:29:33.401Z,95275.00
2023-05-01T11:30:42.259Z,95276.34
2023-05-01T11:31:49.091Z,95280.31
2023-05-01T11:32:54.778Z,95278.72
2023-05-01T11:33:57.469Z,95269.13
2023-05-01T11:34:59.563Z,95276.09
2023-05-01T11:36:02.370Z,95279.28
2023-05-01T11:37:04.075Z,95278.22
2023-05-01T11:38:05.597Z,95279.78
2023-05-01T11:39:15.350Z,95271.81
2023-05-01T11:40:28.195Z,95282.19
2023-05-01T11:41:29.951Z,95275.81
2023-05-01T11:42:31.442Z,95272.63
2023-05-01T11:43:33.372Z,95276.63
2023-05-01T11:44:34.950Z,95277.41
2023-05-01T11:45:37.571Z,95281.94
2023-05-01T11:46:39.576Z,95280.59
2023-05-01T11:47:41.307Z,95283.53
2023-05-01T11:48:49.510Z,95276.59
2023-05-01T11:49:53.490Z,95277.94
2023-05-01T11:50:55.931Z,95281.91
2023-05-01T11:51:59.202Z,95280.06
2023-05-01T11:53:04.650Z,95279.25
2023-05-01T11:54:09.448Z,95280.31
2023-05-01T11:55:11.676Z,95278.19
2023-05-01T11:56:27.201Z,95275.00
2023-05-01T11:57:29.198Z,95279.78
2023-05-01T11:58:33.432Z,95281.66
2023-05-01T11:59:35.006Z,95278.19
2023-05-01T12:00:41.934Z,95284.31
2023-05-01T12:01:45.432Z,95282.97
2023-05-01T12:03:00.948Z,95282.47
2023-05-01T12:04:03.933Z,95281.38
2023-05-01T12:05:18.193Z,95284.31
2023-05-01T12:06:21.865Z,95282.72
2023-05-01T12:07:25.770Z,95291.22
2023-05-01T12:08:27.512Z,95277.13
2023-05-01T12:09:29.291Z,95288.31
2023-05-01T12:10:31.879Z,95285.13
2023-05-01T12:11:36.763Z,95285.09
2023-05-01T12:12:38.637Z,95283.50
2023-05-01T12:13:43.961Z,95287.78
2023-05-01T12:14:47.927Z,95278.75
2023-05-01T12:15:54.739Z,95282.75
2023-05-01T12:16:57.102Z,95283.28
2023-05-01T12:17:58.980Z,95286.19
2023-05-01T12:19:01.015Z,95291.50
2023-05-01T12:20:04.420Z,95285.94
2023-05-01T12:21:14.989Z,95288.59
2023-05-01T12:22:16.871Z,95286.19
2023-05-01T12:23:20.470Z,95290.16
2023-05-01T12:24:24.203Z,95290.16
2023-05-01T12:25:35.504Z,95295.47
2023-05-01T12:26:37.837Z,95293.09
2023-05-01T12:27:45.665Z,95291.50
2023-05-01T12:28:57.601Z,95294.69
2023-05-01T12:30:00.054Z,95297.59
2023-05-01T12:31:05.461Z,95292.56
2023-05-01T12:32:08.401Z,95290.69
2023-05-01T12:33:12.770Z,95298.41
2023-05-01T12:34:17.186Z,95292.81
2023-05-01T12:35:21.443Z,95287.50
2023-05-01T12:36:25.311Z,95293.34
2023-05-01T12:37:32.342Z,95297.06
2023-05-01T12:38:34.012Z,95290.44
2023-05-01T12:39:44.682Z,95287.47
2023-05-01T12:40:57.769Z,95299.19
2023-05-01T12:41:59.877Z,95300.00
2023-05-01T12:43:01.937Z,95294.41
2023-05-01T12:44:24.967Z,95296.25